createdAt,value
2022-08-23T00:01:21.786Z,47.76
2022-08-23T00:03:53.750Z,47.64
2022-08-23T00:06:22.610Z,48.13
2022-08-23T00:08:51.930Z,47.92
2022-08-23T00:11:28.090Z,48.50
2022-08-23T00:13:56.178Z,47.45
2022-08-23T00:16:25.266Z,47.49
2022-08-23T00:18:52.921Z,47.55
2022-08-23T00:21:21.036Z,47.53
2022-08-23T00:23:48.777Z,47.64
2022-08-23T00:26:16.616Z,48.19
2022-08-23T00:28:44.323Z,48.43
2022-08-23T00:31:12.050Z,48.33
2022-08-23T00:33:41.375Z,48.02
2022-08-23T00:36:09.315Z,47.63
2022-08-23T00:38:37.132Z,47.51
2022-08-23T00:41:06.007Z,48.04
2022-08-23T00:43:56.393Z,48.04
2022-08-23T00:46:55.301Z,48.34
2022-08-23T00:49:25.431Z,48.28
2022-08-23T00:51:59.690Z,48.80
2022-08-23T00:54:30.327Z,49.15
2022-08-23T00:57:01.125Z,48.52
2022-08-23T00:59:28.939Z,48.92
2022-08-23T01:01:57.453Z,48.77
2022-08-23T01:04:28.544Z,49.04
2022-08-23T01:07:02.725Z,49.22
2022-08-23T01:09:30.974Z,49.29
2022-08-23T01:12:07.947Z,49.01
2022-08-23T01:14:38.879Z,49.78
2022-08-23T01:17:11.118Z,50.06
2022-08-23T01:19:45.036Z,49.87
2022-08-23T01:22:20.812Z,50.33
2022-08-23T01:25:07.131Z,51.08
2022-08-23T01:27:37.169Z,50.87
2022-08-23T01:30:08.130Z,50.91
2022-08-23T01:32:40.954Z,50.34
2022-08-23T01:35:09.940Z,50.94
2022-08-23T01:37:38.498Z,51.19
2022-08-23T01:40:09.094Z,50.98
2022-08-23T01:42:36.830Z,51.17
2022-08-23T01:45:05.431Z,50.89
2022-08-23T01:47:33.167Z,51.36
2022-08-23T01:50:00.817Z,51.66
2022-08-23T01:52:28.617Z,51.60
2022-08-23T01:54:57.254Z,51.84
2022-08-23T01:57:26.319Z,52.22
2022-08-23T01:59:53.962Z,52.02
2022-08-23T02:02:21.586Z,51.97
2022-08-23T02:04:49.334Z,52.41
2022-08-23T02:07:16.954Z,52.42
2022-08-23T02:09:44.758Z,52.09
2022-08-23T02:12:12.565Z,52.14
2022-08-23T02:14:42.175Z,52.22
2022-08-23T02:17:11.691Z,52.58
2022-08-23T02:19:40.062Z,52.58
2022-08-23T02:22:10.053Z,52.88
2022-08-23T02:24:42.103Z,53.43
2022-08-23T02:27:09.912Z,53.80
2022-08-23T02:29:39.397Z,54.03
2022-08-23T02:32:10.141Z,53.88
2022-08-23T02:37:25.944Z,54.20
2022-08-23T02:39:53.864Z,54.25
2022-08-23T02:42:21.756Z,54.29
2022-08-23T02:44:49.461Z,54.58
2022-08-23T02:47:18.908Z,54.66
2022-08-23T02:49:46.866Z,55.03
2022-08-23T02:52:15.170Z,55.22
2022-08-23T02:54:45.399Z,55.04
2022-08-23T02:57:13.416Z,55.77
2022-08-23T02:59:41.283Z,55.99
2022-08-23T03:02:09.377Z,56.03
2022-08-23T03:04:38.625Z,56.32
2022-08-23T03:07:06.538Z,56.61
2022-08-23T03:09:34.225Z,57.11
2022-08-23T03:12:01.993Z,57.38
2022-08-23T03:14:29.790Z,57.51
2022-08-23T03:16:59.094Z,57.22
2022-08-23T03:19:26.789Z,57.58
2022-08-23T03:21:55.942Z,57.67
2022-08-23T03:24:23.722Z,57.98
2022-08-23T03:26:51.448Z,58.10
2022-08-23T03:29:19.739Z,58.14
2022-08-23T03:31:47.318Z,57.67
2022-08-23T03:34:14.931Z,57.84
2022-08-23T03:36:42.644Z,57.74
2022-08-23T03:39:12.524Z,57.66
2022-08-23T03:41:40.243Z,58.16
2022-08-23T03:44:08.719Z,57.48
2022-08-23T03:46:37.270Z,58.01
2022-08-23T03:49:05.434Z,58.48
2022-08-23T03:51:35.141Z,58.69
2022-08-23T03:54:03.704Z,58.51
2022-08-23T03:56:34.690Z,58.76
2022-08-23T03:59:08.929Z,58.83
2022-08-23T04:01:36.731Z,58.67
2022-08-23T04:04:05.220Z,59.40
2022-08-23T04:06:34.114Z,59.75
2022-08-23T04:09:01.804Z,59.94
2022-08-23T04:11:30.280Z,60.13
2022-08-23T04:13:59.309Z,60.13
2022-08-23T04:16:27.167Z,60.10
2022-08-23T04:18:54.902Z,60.19
2022-08-23T04:21:24.805Z,60.23
2022-08-23T04:23:52.775Z,60.12
2022-08-23T04:26:21.389Z,60.63
2022-08-23T04:28:49.236Z,60.45
2022-08-23T04:31:19.481Z,60.52
2022-08-23T04:33:52.374Z,60.66
2022-08-23T04:36:20.737Z,60.56
2022-08-23T04:38:51.289Z,61.06
2022-08-23T04:41:37.298Z,60.90
2022-08-23T04:44:05.556Z,60.25
2022-08-23T04:46:34.844Z,60.11
2022-08-23T04:49:03.136Z,60.34
2022-08-23T04:51:30.922Z,60.84
2022-08-23T04:53:58.641Z,60.47
2022-08-23T04:56:26.280Z,60.74
2022-08-23T04:58:54.069Z,60.30
2022-08-23T05:01:23.980Z,59.88
2022-08-23T05:03:53.355Z,60.13
2022-08-23T05:06:23.142Z,59.58
2022-08-23T05:08:50.886Z,59.10
2022-08-23T05:11:19.739Z,58.38
2022-08-23T05:13:48.167Z,58.73
2022-08-23T05:16:16.175Z,57.96
2022-08-23T05:18:43.862Z,59.08
2022-08-23T05:21:17.544Z,59.00
2022-08-23T05:23:45.519Z,58.89
2022-08-23T05:26:19.341Z,59.62
2022-08-23T05:28:49.344Z,59.23
2022-08-23T05:31:19.721Z,59.57
2022-08-23T05:33:47.619Z,59.51
2022-08-23T05:36:18.259Z,58.99
2022-08-23T05:38:46.937Z,59.28
2022-08-23T05:41:15.558Z,59.74
2022-08-23T05:43:43.833Z,59.38
2022-08-23T05:46:14.419Z,59.13
2022-08-23T05:48:46.884Z,58.00
2022-08-23T05:51:18.959Z,53.70
2022-08-23T05:53:47.719Z,51.04
2022-08-23T05:56:17.853Z,48.41
2022-08-23T05:58:47.503Z,47.14
2022-08-23T06:01:16.238Z,46.84
2022-08-23T06:03:44.606Z,44.59
2022-08-23T06:06:14.802Z,44.29
2022-08-23T06:08:45.752Z,45.01
2022-08-23T06:11:15.490Z,47.98
2022-08-23T06:13:45.222Z,46.63
2022-08-23T06:16:15.317Z,46.28
2022-08-23T06:18:44.371Z,43.50
2022-08-23T06:21:13.694Z,42.74
2022-08-23T06:23:43.121Z,44.74
2022-08-23T06:26:12.090Z,42.41
2022-08-23T06:28:50.314Z,44.13
2022-08-23T06:31:40.843Z,40.87
2022-08-23T06:34:08.879Z,41.59
2022-08-23T06:36:37.264Z,42.17
2022-08-23T06:39:07.436Z,44.12
2022-08-23T06:41:35.549Z,42.00
2022-08-23T06:44:03.943Z,40.83
2022-08-23T06:46:32.985Z,38.66
2022-08-23T06:49:05.072Z,39.20
2022-08-23T06:51:35.679Z,37.53
2022-08-23T06:54:07.888Z,39.62
2022-08-23T06:56:38.532Z,38.66
2022-08-23T06:59:07.277Z,39.61
2022-08-23T07:01:46.340Z,36.81
2022-08-23T07:04:16.457Z,36.64
2022-08-23T07:06:44.806Z,34.48
2022-08-23T07:09:14.544Z,34.87
2022-08-23T07:11:42.520Z,36.44
2022-08-23T07:14:13.375Z,34.22
2022-08-23T07:16:44.708Z,35.73
2022-08-23T07:19:13.524Z,34.33
2022-08-23T07:21:42.393Z,35.07
2022-08-23T07:24:10.251Z,36.77
2022-08-23T07:26:39.640Z,37.44
2022-08-23T07:29:07.896Z,35.48
2022-08-23T07:31:40.562Z,37.50
2022-08-23T07:34:08.709Z,34.71
2022-08-23T07:36:37.171Z,36.17
2022-08-23T07:39:06.860Z,36.74
2022-08-23T07:41:35.729Z,36.65
2022-08-23T07:44:06.279Z,35.77
2022-08-23T07:46:34.556Z,33.68
2022-08-23T07:49:05.267Z,32.54
2022-08-23T07:51:35.339Z,33.16
2022-08-23T07:54:04.443Z,31.90
2022-08-23T07:56:32.319Z,31.65
2022-08-23T07:59:01.844Z,30.96
2022-08-23T08:01:31.235Z,30.47
2022-08-23T08:04:00.633Z,33.41
2022-08-23T08:06:30.604Z,34.01
2022-08-23T08:08:59.765Z,34.12
2022-08-23T08:11:34.276Z,34.84
2022-08-23T08:14:05.672Z,33.45
2022-08-23T08:16:37.984Z,33.96
2022-08-23T08:19:08.659Z,31.52
2022-08-23T08:21:41.868Z,31.31
2022-08-23T08:24:13.046Z,31.59
2022-08-23T08:26:41.406Z,29.71
2022-08-23T08:29:11.901Z,31.03
2022-08-23T08:31:42.415Z,31.65
2022-08-23T08:34:10.780Z,32.61
2022-08-23T08:36:41.763Z,32.91
2022-08-23T08:39:11.883Z,32.03
2022-08-23T08:41:55.123Z,35.92
2022-08-23T08:44:39.665Z,35.05
2022-08-23T08:47:15.228Z,34.62
2022-08-23T08:49:48.903Z,33.45
2022-08-23T08:52:19.510Z,32.98
2022-08-23T08:54:50.022Z,33.51
2022-08-23T08:57:25.470Z,33.26
2022-08-23T09:00:02.009Z,33.23
2022-08-23T09:02:35.067Z,33.92
2022-08-23T09:05:08.251Z,34.75
2022-08-23T09:07:50.065Z,34.44
2022-08-23T09:10:45.661Z,34.12
2022-08-23T09:13:45.523Z,34.09
2022-08-23T09:16:25.826Z,34.62
2022-08-23T09:18:55.570Z,35.27
2022-08-23T09:21:23.604Z,35.40
2022-08-23T09:24:00.644Z,37.00
2022-08-23T09:26:31.151Z,36.88
2022-08-23T09:29:02.733Z,37.69
2022-08-23T09:31:42.578Z,36.20
2022-08-23T09:34:17.298Z,37.26
2022-08-23T09:36:45.134Z,39.05
2022-08-23T09:39:30.514Z,37.47
2022-08-23T09:42:00.228Z,37.40
2022-08-23T09:44:39.829Z,37.54
2022-08-23T09:47:12.923Z,37.62
2022-08-23T09:49:44.794Z,37.60
2022-08-23T09:52:22.179Z,36.47
2022-08-23T09:54:58.804Z,37.35
2022-08-23T09:57:35.308Z,36.78
2022-08-23T10:00:23.558Z,36.57
2022-08-23T10:02:51.410Z,38.18
2022-08-23T10:05:29.343Z,38.12
2022-08-23T10:08:00.054Z,36.87
2022-08-23T10:10:33.598Z,36.37
2022-08-23T10:13:02.874Z,36.85
2022-08-23T10:15:42.074Z,36.76
2022-08-23T10:18:18.048Z,37.26
2022-08-23T10:20:57.710Z,36.60
2022-08-23T10:23:42.902Z,36.99
2022-08-23T10:26:23.016Z,36.80
2022-08-23T10:29:17.327Z,37.80
2022-08-23T10:31:56.762Z,36.16
2022-08-23T10:34:47.114Z,35.75
2022-08-23T10:37:44.624Z,35.41
2022-08-23T10:40:25.527Z,35.63
2022-08-23T10:43:08.907Z,36.47
2022-08-23T10:45:39.143Z,36.45
2022-08-23T10:48:22.035Z,35.39
2022-08-23T10:50:55.723Z,35.69
2022-08-23T10:53:32.124Z,35.17
2022-08-23T10:56:04.169Z,35.52
2022-08-23T10:58:35.618Z,34.88
2022-08-23T11:01:07.447Z,34.60
2022-08-23T11:03:42.939Z,33.88
2022-08-23T11:06:40.949Z,33.79
2022-08-23T11:09:29.395Z,33.36
2022-08-23T11:12:13.076Z,33.46
2022-08-23T11:14:46.532Z,33.41
2022-08-23T11:17:27.785Z,33.82
2022-08-23T11:19:57.194Z,33.48
2022-08-23T11:22:28.205Z,33.22
2022-08-23T11:25:01.018Z,33.04
2022-08-23T11:27:38.050Z,32.86
2022-08-23T11:30:47.601Z,32.70
2022-08-23T11:33:19.760Z,31.91
2022-08-23T11:35:51.591Z,32.26
2022-08-23T11:38:55.583Z,32.94
2022-08-23T11:41:26.991Z,32.40
2022-08-23T11:44:28.012Z,32.16
2022-08-23T11:47:04.941Z,31.49
2022-08-23T11:50:04.105Z,32.31
2022-08-23T11:52:53.975Z,31.41
2022-08-23T11:55:57.785Z,30.90
2022-08-23T11:58:43.831Z,31.55
2022-08-23T12:01:13.791Z,32.03
2022-08-23T12:03:57.057Z,31.11
2022-08-23T12:06:50.996Z,31.23
2022-08-23T12:09:51.524Z,31.07
2022-08-23T12:12:40.021Z,30.07
2022-08-23T12:15:13.672Z,30.72
2022-08-23T12:18:13.390Z,30.77
2022-08-23T12:20:42.079Z,31.50
2022-08-23T12:23:22.281Z,31.13
2022-08-23T12:26:08.648Z,31.68
2022-08-23T12:28:43.312Z,33.12
2022-08-23T12:31:26.401Z,33.64
2022-08-23T12:34:05.498Z,33.55
2022-08-23T12:36:41.028Z,33.42
2022-08-23T12:39:20.085Z,33.32
2022-08-23T12:41:55.660Z,32.25
2022-08-23T12:44:27.391Z,31.97
2022-08-23T12:46:57.716Z,31.44
2022-08-23T12:49:28.807Z,31.95
2022-08-23T12:51:59.312Z,31.77
2022-08-23T12:54:36.258Z,31.79
2022-08-23T12:57:11.524Z,30.86
2022-08-23T12:59:44.647Z,30.86
2022-08-23T13:02:19.229Z,30.75
2022-08-23T13:04:47.565Z,30.26
2022-08-23T13:07:20.657Z,29.00
2022-08-23T13:09:53.551Z,30.20
2022-08-23T13:12:24.037Z,31.27
2022-08-23T13:14:54.336Z,29.44
2022-08-23T13:17:33.066Z,29.14
2022-08-23T13:20:22.107Z,29.88
2022-08-23T13:23:03.254Z,29.51
2022-08-23T13:25:34.873Z,30.21
2022-08-23T13:28:06.106Z,29.62
2022-08-23T13:30:36.321Z,29.08
2022-08-23T13:33:23.264Z,30.12
2022-08-23T13:35:53.804Z,28.75
2022-08-23T13:38:25.826Z,29.99
2022-08-23T13:41:01.158Z,29.71
2022-08-23T13:43:33.778Z,30.17
2022-08-23T13:46:12.946Z,30.16
2022-08-23T13:48:48.592Z,30.97
2022-08-23T13:51:29.301Z,31.03
2022-08-23T13:53:59.091Z,31.02
2022-08-23T13:56:28.198Z,30.74
2022-08-23T13:58:58.566Z,31.02
2022-08-23T14:01:26.385Z,30.97
2022-08-23T14:03:55.803Z,29.81
2022-08-23T14:06:23.959Z,29.38
2022-08-23T14:08:51.776Z,29.60
2022-08-23T14:11:20.291Z,29.51
2022-08-23T14:13:49.778Z,29.48
2022-08-23T14:16:40.232Z,29.83
2022-08-23T14:19:16.585Z,28.99
2022-08-23T14:22:00.536Z,30.15
2022-08-23T14:24:29.221Z,29.06
2022-08-23T14:26:57.893Z,29.52
2022-08-23T14:29:29.001Z,30.25
2022-08-23T14:31:58.004Z,30.54
2022-08-23T14:34:28.110Z,30.92
2022-08-23T14:39:43.911Z,31.25
2022-08-23T14:42:14.113Z,31.81
2022-08-23T14:44:45.508Z,31.78
2022-08-23T14:47:13.130Z,31.67
2022-08-23T14:49:42.211Z,31.65
2022-08-23T14:52:10.097Z,30.86
2022-08-23T14:54:37.770Z,30.50
2022-08-23T14:57:05.915Z,30.72
2022-08-23T14:59:33.681Z,29.67
2022-08-23T15:02:01.675Z,29.90
2022-08-23T15:04:34.789Z,29.57
2022-08-23T15:07:21.433Z,29.60
2022-08-23T15:09:50.468Z,29.72
2022-08-23T15:15:12.326Z,30.08
2022-08-23T15:17:45.975Z,29.00
2022-08-23T15:20:13.933Z,29.47
2022-08-23T15:22:44.601Z,29.71
2022-08-23T15:25:14.799Z,29.87
2022-08-23T15:27:42.843Z,29.75
2022-08-23T15:30:12.010Z,30.39
2022-08-23T15:32:39.821Z,29.75
2022-08-23T15:35:20.244Z,30.30
2022-08-23T15:37:50.528Z,30.17
2022-08-23T15:40:18.320Z,30.55
2022-08-23T15:42:45.992Z,31.12
2022-08-23T15:45:13.650Z,29.83
2022-08-23T15:47:48.095Z,30.76
2022-08-23T15:50:17.503Z,30.14
2022-08-23T15:52:45.104Z,29.91
2022-08-23T15:55:15.672Z,29.80
2022-08-23T15:57:47.655Z,29.46
2022-08-23T16:00:18.008Z,29.81
2022-08-23T16:03:18.826Z,30.80
2022-08-23T16:05:34.277Z,30.68
2022-08-23T16:08:01.923Z,30.47
2022-08-23T16:10:30.990Z,30.29
2022-08-23T16:12:58.820Z,30.31
2022-08-23T16:15:26.680Z,30.34
2022-08-23T16:17:54.633Z,31.28
2022-08-23T16:20:22.253Z,31.21
2022-08-23T16:22:49.889Z,30.39
2022-08-23T16:25:17.752Z,30.41
2022-08-23T16:27:46.747Z,30.40
2022-08-23T16:30:15.412Z,30.38
2022-08-23T16:32:43.426Z,30.34
2022-08-23T16:35:11.519Z,30.58
2022-08-23T16:37:39.213Z,31.23
2022-08-23T16:40:09.241Z,30.23
2022-08-23T16:42:36.947Z,30.64
2022-08-23T16:45:07.608Z,30.44
2022-08-23T16:47:40.580Z,30.52
2022-08-23T16:50:09.307Z,30.47
2022-08-23T16:52:37.277Z,30.70
2022-08-23T16:55:06.975Z,30.66
2022-08-23T16:57:34.912Z,30.39
2022-08-23T17:00:03.033Z,31.05
2022-08-23T17:02:34.785Z,31.20
2022-08-23T17:05:03.849Z,30.97
2022-08-23T17:07:31.593Z,30.89
2022-08-23T17:09:59.230Z,30.85
2022-08-23T17:12:27.859Z,31.60
2022-08-23T17:14:57.187Z,31.20
2022-08-23T17:17:25.278Z,30.98
2022-08-23T17:19:54.245Z,31.00
2022-08-23T17:22:21.861Z,31.04
2022-08-23T17:24:50.058Z,30.99
2022-08-23T17:27:20.951Z,31.18
2022-08-23T17:29:48.873Z,31.42
2022-08-23T17:32:19.284Z,31.52
2022-08-23T17:34:46.949Z,31.64
2022-08-23T17:37:18.555Z,31.56
2022-08-23T17:39:46.395Z,31.90
2022-08-23T17:42:14.424Z,31.37
2022-08-23T17:44:42.196Z,31.61
2022-08-23T17:47:15.405Z,31.90
2022-08-23T17:49:43.879Z,32.42
2022-08-23T17:52:12.519Z,33.06
2022-08-23T17:54:42.185Z,33.07
2022-08-23T17:57:12.621Z,33.76
2022-08-23T17:59:40.923Z,33.96
2022-08-23T18:02:11.602Z,33.69
2022-08-23T18:04:39.874Z,33.27
2022-08-23T18:07:08.238Z,33.79
2022-08-23T18:09:38.989Z,33.83
2022-08-23T18:12:13.376Z,33.81
2022-08-23T18:14:41.039Z,33.89
2022-08-23T18:17:08.856Z,33.36
2022-08-23T18:19:36.616Z,34.00
2022-08-23T18:22:04.464Z,33.40
2022-08-23T18:24:32.457Z,32.83
2022-08-23T18:27:21.404Z,32.81
2022-08-23T18:29:51.717Z,33.01
2022-08-23T18:32:20.503Z,32.68
2022-08-23T18:34:48.236Z,33.93
2022-08-23T18:37:17.228Z,34.64
2022-08-23T18:39:45.355Z,34.27
2022-08-23T18:42:13.273Z,34.72
2022-08-23T18:44:41.436Z,35.50
2022-08-23T18:47:11.493Z,36.17
2022-08-23T18:49:39.433Z,35.77
2022-08-23T18:52:07.587Z,35.94
2022-08-23T18:54:37.312Z,35.97
2022-08-23T18:57:05.722Z,36.04
2022-08-23T18:59:33.478Z,36.62
2022-08-23T19:02:01.560Z,36.66
2022-08-23T19:04:31.161Z,36.23
2022-08-23T19:07:00.381Z,36.15
2022-08-23T19:09:27.976Z,36.52
2022-08-23T19:11:55.850Z,37.03
2022-08-23T19:14:24.028Z,37.56
2022-08-23T19:16:51.790Z,37.70
2022-08-23T19:19:19.874Z,37.90
2022-08-23T19:21:49.255Z,38.19
2022-08-23T19:24:17.593Z,37.99
2022-08-23T19:26:47.504Z,37.64
2022-08-23T19:29:18.418Z,37.68
2022-08-23T19:31:48.034Z,38.23
2022-08-23T19:34:16.688Z,38.75
2022-08-23T19:36:49.345Z,38.44
2022-08-23T19:39:21.056Z,38.79
2022-08-23T19:41:49.354Z,39.01
2022-08-23T19:44:17.812Z,39.64
2022-08-23T19:46:46.429Z,39.96
2022-08-23T19:49:15.583Z,39.75
2022-08-23T19:51:44.016Z,39.95
2022-08-23T19:54:13.521Z,39.62
2022-08-23T19:56:46.789Z,40.09
2022-08-23T19:59:19.537Z,39.86
2022-08-23T20:01:47.884Z,40.15
2022-08-23T20:04:15.580Z,40.75
2022-08-23T20:06:44.241Z,40.24
2022-08-23T20:09:12.481Z,41.05
2022-08-23T20:11:40.417Z,40.83
2022-08-23T20:14:09.995Z,40.93
2022-08-23T20:16:41.024Z,41.46
2022-08-23T20:19:10.882Z,41.55
2022-08-23T20:21:39.319Z,41.09
2022-08-23T20:24:06.971Z,41.53
2022-08-23T20:26:39.061Z,41.82
2022-08-23T20:29:07.977Z,42.22
2022-08-23T20:31:40.617Z,41.79
2022-08-23T20:34:09.892Z,41.50
2022-08-23T20:36:37.586Z,41.14
2022-08-23T20:39:05.934Z,41.11
2022-08-23T20:41:35.969Z,42.16
2022-08-23T20:44:06.659Z,41.91
2022-08-23T20:46:34.730Z,42.60
2022-08-23T20:49:03.765Z,42.95
2022-08-23T20:51:31.974Z,43.48
2022-08-23T20:54:04.995Z,44.20
2022-08-23T20:56:34.948Z,43.98
2022-08-23T20:59:02.824Z,44.64
2022-08-23T21:01:32.867Z,44.52
2022-08-23T21:04:01.112Z,44.75
2022-08-23T21:06:37.668Z,45.04
2022-08-23T21:09:05.981Z,44.88
2022-08-23T21:11:33.579Z,45.14
2022-08-23T21:14:02.324Z,45.29
2022-08-23T21:16:30.029Z,45.65
2022-08-23T21:19:06.039Z,45.77
2022-08-23T21:21:35.238Z,45.41
2022-08-23T21:24:03.439Z,45.74
2022-08-23T21:26:32.143Z,46.33
2022-08-23T21:28:59.910Z,46.98
2022-08-23T21:31:28.541Z,46.75
2022-08-23T21:33:56.368Z,47.37
2022-08-23T21:36:25.437Z,47.64
2022-08-23T21:38:54.838Z,48.09
2022-08-23T21:41:35.692Z,48.19
2022-08-23T21:44:06.664Z,47.74
2022-08-23T21:46:35.538Z,48.39
2022-08-23T21:49:03.261Z,48.27
2022-08-23T21:51:31.092Z,48.20
2022-08-23T21:54:04.820Z,47.80
2022-08-23T21:56:32.602Z,48.08
2022-08-23T21:59:00.923Z,47.71
2022-08-23T22:01:29.007Z,47.61
2022-08-23T22:03:57.375Z,47.26
2022-08-23T22:06:26.151Z,47.64
2022-08-23T22:08:53.978Z,47.39
2022-08-23T22:11:23.848Z,47.48
2022-08-23T22:13:52.279Z,47.21
2022-08-23T22:16:20.033Z,47.50
2022-08-23T22:18:47.708Z,47.83
2022-08-23T22:21:15.463Z,48.08
2022-08-23T22:23:44.676Z,48.12
2022-08-23T22:26:13.656Z,48.49
2022-08-23T22:28:44.594Z,47.92
2022-08-23T22:31:14.773Z,48.67
2022-08-23T22:33:44.988Z,48.75
2022-08-23T22:36:16.451Z,49.17
2022-08-23T22:38:44.762Z,48.96
2022-08-23T22:41:15.779Z,48.85
2022-08-23T22:43:44.836Z,49.33
2022-08-23T22:46:12.959Z,49.15
2022-08-23T22:48:40.961Z,49.72
2022-08-23T22:51:10.778Z,49.46
2022-08-23T22:53:40.360Z,49.70
2022-08-23T22:56:09.353Z,49.84
2022-08-23T22:58:37.075Z,49.75
2022-08-23T23:01:10.800Z,50.23
2022-08-23T23:03:41.646Z,50.08
2022-08-23T23:06:10.195Z,50.06
2022-08-23T23:08:38.028Z,49.83
2022-08-23T23:11:08.207Z,50.10
2022-08-23T23:13:36.270Z,50.08
2022-08-23T23:16:10.504Z,50.05
2022-08-23T23:18:40.192Z,50.07
2022-08-23T23:21:10.016Z,50.47
2022-08-23T23:23:38.986Z,50.55
2022-08-23T23:26:08.095Z,50.56
2022-08-23T23:28:35.760Z,49.91
2022-08-23T23:31:07.611Z,50.53
2022-08-23T23:33:35.299Z,49.99
2022-08-23T23:36:04.718Z,50.43
2022-08-23T23:38:32.319Z,50.36
2022-08-23T23:41:00.408Z,50.57
2022-08-23T23:43:31.142Z,50.43
2022-08-23T23:45:59.016Z,51.01
2022-08-23T23:48:28.157Z,50.27
2022-08-23T23:50:55.721Z,49.63
2022-08-23T23:53:23.378Z,50.31
2022-08-23T23:56:00.772Z,49.88
2022-08-23T23:58:28.603Z,49.72
